Aviation Digital Data Service (ADDS)

Output produced by METARs form (1158 UTC 22 March 2019)
found at http://www.aviationweather.gov/metar/data/
 
Forecast for: KHOU (HOUSTON/HOBBY , TX, US)
Text: KHOU 221132Z 2212/2312 VRB03KT P6SM BKN250
Forecast period: 1200 to 2100 UTC 22 March 2019
Forecast type: FROM: standard forecast or significant change
Winds: variable direction winds at 3 MPH (3 knots; 1.5 m/s)
Visibility: 6 or more miles 10+ km)
Ceiling: 25000 feet AGL
Clouds: broken clouds at 25000 feet AGL
Weather: no significant weather forecast for this period
Text: FM222100 15006KT P6SM FEW250
Forecast period: 2100 UTC 22 March 2019 to 0300 UTC 23 March 2019
Forecast type: FROM: standard forecast or significant change
Winds: from the SSE (150 degrees) at 7 MPH (6 knots; 3.1 m/s)
Visibility: 6 or more miles 10+ km)
Ceiling: at least 12,000 feet AGL
Clouds: few clouds at 25000 feet AGL
Weather: no significant weather forecast for this period
Text: FM230300 VRB03KT P6SM FEW250
Forecast period: 0300 to 1200 UTC 23 March 2019
Forecast type: FROM: standard forecast or significant change
Winds: variable direction winds at 3 MPH (3 knots; 1.5 m/s)
Visibility: 6 or more miles 10+ km)
Ceiling: at least 12,000 feet AGL
Clouds: few clouds at 25000 feet AGL
Weather: no significant weather forecast for this period